Time;durP1;ratioP1;P1;durP2;ratioP2;P2;SDS_P1;SDS_P2;PMS_P1;PMS_P2;Temp;Humidity;BMP_temperature;BMP_pressure;BME280_temperature;BME280_humidity;BME280_pressure;Samples;Min_cycle;Max_cycle;Signal;HPM_P1;HPM_P2
2022/01/08 00:00:54;;;;;;;8.93;1.15;;;;;;;4.57;100.00;100928.41;5074176;28;20055;-32
2022/01/08 00:03:22;;;;;;;11.23;1.60;;;;;;;4.60;100.00;100933.41;5073162;28;20037;-34
2022/01/08 00:05:50;;;;;;;13.43;1.77;;;;;;;4.64;100.00;100940.09;5070640;28;20075;-32
2022/01/08 00:08:18;;;;;;;6.65;1.50;;;;;;;4.66;100.00;100940.66;5074154;28;20041;-36
2022/01/08 00:10:45;;;;;;;9.77;1.50;;;;;;;4.65;100.00;100936.22;5073350;28;20052;-36
2022/01/08 00:13:15;;;;;;;8.43;1.65;;;;;;;4.64;100.00;100940.09;5074346;28;20043;-32
2022/01/08 00:15:42;;;;;;;8.55;1.70;;;;;;;4.61;100.00;100946.13;5071939;28;20044;-39
2022/01/08 00:18:10;;;;;;;11.88;1.58;;;;;;;4.60;100.00;100944.44;5073788;28;20052;-37
2022/01/08 00:20:38;;;;;;;10.65;1.55;;;;;;;4.57;100.00;100950.50;5073631;28;20052;-35
2022/01/08 00:23:05;;;;;;;10.13;1.55;;;;;;;4.55;100.00;100947.16;5073669;28;20044;-32
2022/01/08 00:25:33;;;;;;;9.60;1.40;;;;;;;4.54;100.00;100956.56;5071590;28;20049;-36
2022/01/08 00:28:01;;;;;;;7.28;1.33;;;;;;;4.52;100.00;100958.72;5073930;28;20138;-40
2022/01/08 00:30:31;;;;;;;6.82;1.45;;;;;;;4.50;100.00;100959.81;5071429;28;20048;-35
2022/01/08 00:32:59;;;;;;;9.23;1.60;;;;;;;4.48;100.00;100953.72;5073696;28;20494;-33
2022/01/08 00:35:28;;;;;;;9.60;1.70;;;;;;;4.49;100.00;100957.31;5073039;28;20084;-38
2022/01/08 00:37:55;;;;;;;10.90;1.50;;;;;;;4.47;100.00;100957.56;5072474;28;20120;-34
2022/01/08 00:40:24;;;;;;;7.15;1.58;;;;;;;4.45;100.00;100965.28;5073129;28;20048;-35
2022/01/08 00:42:51;;;;;;;10.57;1.52;;;;;;;4.46;100.00;100957.81;5073565;28;20143;-32
2022/01/08 00:45:19;;;;;;;8.02;1.35;;;;;;;4.47;100.00;100963.09;5071970;28;20486;-35
2022/01/08 00:47:48;;;;;;;6.93;1.10;;;;;;;4.47;100.00;100965.84;5073241;28;20090;-36
2022/01/08 00:50:16;;;;;;;8.63;1.30;;;;;;;4.44;100.00;100952.56;5072760;28;20103;-35
2022/01/08 00:52:44;;;;;;;9.50;1.50;;;;;;;4.42;100.00;100960.25;5071473;28;20055;-37
2022/01/08 00:55:12;;;;;;;10.55;1.15;;;;;;;4.41;100.00;100960.50;5072952;28;20048;-32
2022/01/08 00:57:41;;;;;;;9.07;1.20;;;;;;;4.40;100.00;100951.38;5072592;28;20075;-34
2022/01/08 01:00:11;;;;;;;8.30;1.50;;;;;;;4.39;100.00;100944.22;5071972;28;20047;-32
2022/01/08 01:02:39;;;;;;;8.52;1.58;;;;;;;4.36;100.00;100947.50;5072802;28;20040;-35
2022/01/08 01:05:10;;;;;;;6.50;1.15;;;;;;;4.34;100.00;100946.91;5073014;28;20135;-36
2022/01/08 01:07:38;;;;;;;7.72;1.20;;;;;;;4.31;100.00;100947.41;5072148;28;20043;-39
2022/01/08 01:10:07;;;;;;;11.32;1.80;;;;;;;4.31;100.00;100952.94;5072635;28;20060;-36
2022/01/08 01:12:36;;;;;;;10.65;1.52;;;;;;;4.34;100.00;100949.66;5070568;28;20040;-37
2022/01/08 01:15:10;;;;;;;8.00;1.60;;;;;;;4.35;100.00;100954.09;5072957;28;20401;-36
2022/01/08 01:17:38;;;;;;;5.55;0.73;;;;;;;4.33;100.00;100955.44;5072053;28;20051;-36
2022/01/08 01:20:07;;;;;;;5.30;0.82;;;;;;;4.27;100.00;100970.28;5071808;28;20056;-31
2022/01/08 01:22:45;;;;;;;4.15;0.70;;;;;;;4.12;100.00;100954.31;5072082;28;20044;-35
2022/01/08 01:25:17;;;;;;;4.40;0.73;;;;;;;3.96;100.00;100960.72;5054682;28;20063;-36
2022/01/08 01:27:57;;;;;;;6.18;0.70;;;;;;;3.80;100.00;100954.94;5068863;28;20096;-31
2022/01/08 01:30:49;;;;;;;4.45;0.90;;;;;;;3.76;100.00;100953.81;5053895;28;20056;-32
2022/01/08 01:41:46;;;;;;;9.68;1.30;;;;;;;3.97;100.00;100960.47;5070919;28;20055;-32
2022/01/08 01:47:02;;;;;;;10.82;1.90;;;;;;;4.11;100.00;100947.13;5071873;28;20638;-32
2022/01/08 01:49:32;;;;;;;8.70;1.40;;;;;;;4.20;100.00;100940.06;5071285;28;20056;-37
2022/01/08 01:52:01;;;;;;;7.30;1.00;;;;;;;4.27;100.00;100951.78;5071587;28;20049;-35
2022/01/08 01:54:33;;;;;;;7.18;1.00;;;;;;;4.31;100.00;100941.88;5068707;28;20052;-33
2022/01/08 01:57:02;;;;;;;9.07;1.23;;;;;;;4.35;100.00;100943.06;5070895;28;20049;-33
2022/01/08 01:59:31;;;;;;;7.43;1.40;;;;;;;4.40;100.00;100945.03;5072105;28;20048;-36
2022/01/08 02:01:59;;;;;;;8.13;1.70;;;;;;;4.42;100.00;100945.59;5070963;28;20050;-31
2022/01/08 02:04:28;;;;;;;8.43;1.48;;;;;;;4.46;100.00;100955.06;5071573;28;20070;-35
2022/01/08 02:06:55;;;;;;;11.73;1.38;;;;;;;4.49;100.00;100943.50;5071420;28;20051;-36
2022/01/08 02:09:23;;;;;;;8.65;1.27;;;;;;;4.54;100.00;100949.09;5071044;28;20051;-38
2022/01/08 02:12:00;;;;;;;4.18;1.15;;;;;;;4.58;100.00;100952.19;5071865;28;20056;-37
2022/01/08 02:14:30;;;;;;;6.38;1.15;;;;;;;4.57;100.00;100956.88;5070711;28;20429;-40
2022/01/08 02:16:58;;;;;;;7.75;1.25;;;;;;;4.57;100.00;100956.88;5052845;28;20057;-37
2022/01/08 02:19:26;;;;;;;8.23;1.13;;;;;;;4.60;100.00;100959.09;5071544;28;20048;-31
2022/01/08 02:21:57;;;;;;;7.57;1.35;;;;;;;4.61;100.00;100963.53;5072219;28;20417;-40
2022/01/08 02:24:26;;;;;;;9.23;1.38;;;;;;;4.64;100.00;100962.19;5070573;28;20048;-39
2022/01/08 02:26:55;;;;;;;9.90;1.20;;;;;;;4.63;100.00;100972.41;5071082;28;20036;-37
2022/01/08 02:29:25;;;;;;;4.80;1.00;;;;;;;4.63;100.00;100975.16;5071076;28;20044;-33
2022/01/08 02:31:54;;;;;;;6.88;1.10;;;;;;;4.63;100.00;100971.56;5070904;28;20504;-39
2022/01/08 02:34:22;;;;;;;9.07;1.27;;;;;;;4.62;100.00;100973.50;5070884;28;20048;-33
2022/01/08 02:36:50;;;;;;;8.70;1.23;;;;;;;4.59;100.00;100974.03;5071472;28;20049;-40
2022/01/08 02:39:19;;;;;;;9.32;1.27;;;;;;;4.59;100.00;100975.97;5070377;28;20055;-38
2022/01/08 02:41:47;;;;;;;6.97;1.48;;;;;;;4.56;100.00;100979.25;5070755;28;20041;-40
2022/01/08 02:44:14;;;;;;;6.88;1.30;;;;;;;4.53;100.00;100976.97;5069784;28;20032;-34
2022/01/08 02:46:42;;;;;;;7.28;1.15;;;;;;;4.52;100.00;100964.25;5070921;28;20135;-36
2022/01/08 02:49:10;;;;;;;5.05;0.90;;;;;;;4.48;100.00;100964.75;5070597;28;20048;-35
2022/01/08 02:51:38;;;;;;;8.27;1.02;;;;;;;4.47;100.00;100957.56;5070253;28;20063;-33
2022/01/08 02:54:10;;;;;;;5.75;1.15;;;;;;;4.46;100.00;100958.66;5070648;28;20048;-30
2022/01/08 02:56:39;;;;;;;9.10;1.02;;;;;;;4.43;100.00;100961.94;5071124;28;20056;-32
2022/01/08 02:59:08;;;;;;;6.93;1.83;;;;;;;4.40;100.00;100950.53;5069717;28;20510;-39
2022/01/08 03:01:37;;;;;;;6.63;0.80;;;;;;;4.40;100.00;100959.69;5070903;28;20054;-39
2022/01/08 03:04:06;;;;;;;7.47;1.00;;;;;;;4.38;100.00;100964.66;5070149;28;20048;-34
2022/01/08 03:06:34;;;;;;;6.75;1.00;;;;;;;4.36;100.00;100966.00;5069808;28;20052;-40
2022/01/08 03:09:02;;;;;;;8.38;1.10;;;;;;;4.34;100.00;100963.47;5070860;28;20048;-35
2022/01/08 03:11:29;;;;;;;7.18;1.20;;;;;;;4.34;100.00;100960.72;5070589;28;20045;-34
2022/01/08 03:13:59;;;;;;;8.27;1.42;;;;;;;4.33;100.00;100964.56;5069721;28;20063;-33
2022/01/08 03:16:26;;;;;;;9.48;1.45;;;;;;;4.33;100.00;100961.81;5070801;28;20055;-35
2022/01/08 03:18:54;;;;;;;5.70;0.90;;;;;;;4.34;100.00;100962.66;5071401;28;20048;-37
2022/01/08 03:21:34;;;;;;;5.45;0.88;;;;;;;4.32;100.00;100962.91;5069842;28;20494;-40
2022/01/08 03:24:03;;;;;;;7.20;1.02;;;;;;;4.31;100.00;100974.19;5070573;28;20045;-33
2022/01/08 03:26:31;;;;;;;12.05;1.60;;;;;;;4.29;100.00;100966.16;5069715;28;20044;-37
2022/01/08 03:29:00;;;;;;;7.85;1.30;;;;;;;4.26;100.00;100969.44;5070986;28;20541;-40
2022/01/08 03:31:28;;;;;;;5.82;0.93;;;;;;;4.17;100.00;100968.22;5070245;28;20523;-33
2022/01/08 03:33:55;;;;;;;5.68;0.85;;;;;;;4.10;100.00;100984.13;5069992;28;20048;-38
2022/01/08 03:36:24;;;;;;;7.70;0.90;;;;;;;4.05;100.00;100973.00;5070344;28;20478;-41
2022/01/08 03:38:53;;;;;;;4.60;1.00;;;;;;;4.00;100.00;100978.44;5071120;28;20090;-34
2022/01/08 03:41:22;;;;;;;6.28;0.68;;;;;;;3.99;100.00;100976.78;5069812;28;20123;-32
2022/01/08 03:43:50;;;;;;;4.18;0.80;;;;;;;4.00;100.00;100978.44;5070683;28;20146;-36
2022/01/08 03:46:21;;;;;;;5.68;0.77;;;;;;;4.01;100.00;100963.53;5069753;28;20464;-39
2022/01/08 03:49:11;;;;;;;5.97;0.90;;;;;;;4.00;100.00;100957.19;5070270;28;20068;-34
2022/01/08 03:51:37;;;;;;;4.32;0.93;;;;;;;3.99;100.00;100965.75;5070242;28;20052;-38
2022/01/08 03:54:05;;;;;;;8.23;1.98;;;;;;;3.99;100.00;100962.97;5070724;28;20083;-32
2022/01/08 03:56:32;;;;;;;6.43;1.23;;;;;;;4.00;100.00;100964.63;5069240;28;20047;-32
2022/01/08 03:59:00;;;;;;;5.57;1.10;;;;;;;4.04;100.00;100961.09;5070175;28;20059;-38
2022/01/08 04:01:29;;;;;;;3.00;0.80;;;;;;;4.06;100.00;100964.44;5070187;28;20041;-34
2022/01/08 04:03:57;;;;;;;6.85;0.85;;;;;;;4.05;100.00;100964.72;5070307;28;20045;-33
2022/01/08 04:06:25;;;;;;;3.80;0.90;;;;;;;4.02;100.00;100976.25;5069206;28;20057;-34
2022/01/08 04:08:57;;;;;;;6.10;1.08;;;;;;;3.99;100.00;100972.09;5069706;28;20052;-35
2022/01/08 04:11:25;;;;;;;5.40;1.10;;;;;;;3.96;100.00;100963.47;5070363;28;20060;-36
2022/01/08 04:13:54;;;;;;;7.30;0.90;;;;;;;3.95;100.00;100964.56;5070155;28;20068;-34
2022/01/08 04:16:28;;;;;;;4.72;0.75;;;;;;;3.91;100.00;100964.22;5069499;28;20049;-38
2022/01/08 04:18:57;;;;;;;6.13;1.00;;;;;;;3.91;100.00;100972.50;5070246;28;20413;-35
2022/01/08 04:24:18;;;;;;;6.00;1.20;;;;;;;3.91;100.00;100971.69;5040431;28;20044;-36
2022/01/08 04:26:46;;;;;;;6.90;0.90;;;;;;;3.91;100.00;100960.63;5071285;28;20040;-37
2022/01/08 04:29:14;;;;;;;8.23;1.20;;;;;;;3.92;100.00;100965.06;5073399;28;20054;-36
2022/01/08 04:31:42;;;;;;;5.85;1.42;;;;;;;3.92;100.00;100976.09;5072514;28;20036;-40
2022/01/08 04:34:11;;;;;;;3.80;0.85;;;;;;;3.92;100.00;100974.19;5073455;28;20139;-33
2022/01/08 04:36:38;;;;;;;3.60;1.08;;;;;;;3.92;100.00;100971.44;5056369;28;20055;-38
2022/01/08 04:39:06;;;;;;;5.88;0.95;;;;;;;3.91;100.00;100963.41;5073734;28;20044;-33
2022/01/08 04:41:34;;;;;;;5.95;0.90;;;;;;;3.90;100.00;100962.56;5073781;28;20536;-32
2022/01/08 04:44:01;;;;;;;4.07;0.88;;;;;;;3.93;100.00;100970.34;5072613;28;20052;-37
2022/01/08 04:46:29;;;;;;;6.85;1.00;;;;;;;3.96;100.00;100974.53;5073713;28;20421;-35
2022/01/08 04:48:57;;;;;;;6.38;1.30;;;;;;;3.99;100.00;100966.56;5072696;28;20041;-33
2022/01/08 04:51:26;;;;;;;9.65;1.25;;;;;;;4.02;100.00;100971.56;5072556;28;20057;-33
2022/01/08 04:53:54;;;;;;;7.20;1.00;;;;;;;4.04;100.00;100971.31;5072808;28;20481;-35
2022/01/08 04:56:21;;;;;;;6.40;1.08;;;;;;;4.08;100.00;100964.19;5073496;28;20052;-34
2022/01/08 04:58:49;;;;;;;7.90;1.15;;;;;;;4.10;100.00;100962.03;5071509;28;20047;-33
2022/01/08 05:01:18;;;;;;;5.63;1.10;;;;;;;4.10;100.00;100960.09;5073565;28;20141;-37
2022/01/08 05:03:46;;;;;;;6.55;1.17;;;;;;;4.11;100.00;100960.94;5072945;28;20132;-35
2022/01/08 05:06:14;;;;;;;12.25;1.80;;;;;;;4.13;100.00;100964.28;5072544;28;20041;-34
2022/01/08 05:08:43;;;;;;;9.13;1.60;;;;;;;4.13;100.00;100965.13;5072765;28;20626;-38
2022/01/08 05:11:11;;;;;;;7.10;1.10;;;;;;;4.14;100.00;100963.19;5072361;28;20119;-35
2022/01/08 05:13:39;;;;;;;5.63;1.30;;;;;;;4.19;100.00;100965.19;5072146;28;20063;-32
2022/01/08 05:16:06;;;;;;;5.50;1.15;;;;;;;4.22;100.00;100975.72;5072887;28;20505;-38
2022/01/08 05:18:34;;;;;;;10.05;1.50;;;;;;;4.25;100.00;100967.75;5073206;28;20757;-34
2022/01/08 05:21:18;;;;;;;7.55;1.20;;;;;;;4.27;100.00;100968.34;5072010;28;20052;-33
2022/01/08 05:23:47;;;;;;;12.85;1.30;;;;;;;4.27;100.00;100973.88;5072060;28;20040;-36
2022/01/08 05:26:15;;;;;;;7.55;1.00;;;;;;;4.28;100.00;100967.25;5070758;28;20477;-35
2022/01/08 05:28:44;;;;;;;11.70;1.40;;;;;;;4.30;100.00;100975.28;5072135;28;20048;-37
2022/01/08 05:31:12;;;;;;;5.68;1.20;;;;;;;4.30;100.00;100967.00;5070468;28;20048;-34
2022/01/08 05:33:39;;;;;;;4.40;1.20;;;;;;;4.29;100.00;100985.50;5071931;28;20051;-37
2022/01/08 05:36:07;;;;;;;5.70;1.20;;;;;;;4.30;100.00;100983.56;5072324;28;20036;-35
2022/01/08 05:38:35;;;;;;;5.45;1.17;;;;;;;4.28;100.00;100985.75;5071671;28;20049;-40
2022/01/08 05:41:04;;;;;;;9.07;1.42;;;;;;;4.29;100.00;100985.50;5071258;28;20386;-37
2022/01/08 05:43:32;;;;;;;6.20;1.38;;;;;;;4.29;100.00;100985.50;5072782;28;20052;-36
2022/01/08 05:46:00;;;;;;;10.02;1.70;;;;;;;4.27;100.00;100979.41;5072272;28;20064;-33
2022/01/08 05:48:28;;;;;;;7.38;1.10;;;;;;;4.28;100.00;100974.69;5071660;28;20048;-39
2022/01/08 05:50:55;;;;;;;10.02;1.33;;;;;;;4.28;100.00;100988.50;5070909;28;20044;-38
2022/01/08 05:53:23;;;;;;;6.53;1.20;;;;;;;4.25;100.00;100981.56;5072010;28;20051;-32
2022/01/08 05:55:51;;;;;;;3.75;0.80;;;;;;;4.23;100.00;100969.94;5070847;28;20912;-32
2022/01/08 05:58:20;;;;;;;6.15;1.42;;;;;;;4.21;100.00;100968.50;5072074;28;20155;-36
2022/01/08 06:00:48;;;;;;;4.95;0.85;;;;;;;4.18;100.00;100972.66;5071464;28;20056;-36
2022/01/08 06:03:16;;;;;;;4.82;0.95;;;;;;;4.17;100.00;100973.75;5071355;28;20037;-39
2022/01/08 06:05:45;;;;;;;6.47;1.05;;;;;;;4.19;100.00;100976.25;5071039;28;20041;-34
2022/01/08 06:08:13;;;;;;;5.88;1.00;;;;;;;4.20;100.00;100975.97;5070691;28;20478;-36
2022/01/08 06:10:40;;;;;;;6.70;1.30;;;;;;;4.22;100.00;100971.03;5070338;28;20638;-36
2022/01/08 06:13:08;;;;;;;5.45;1.05;;;;;;;4.22;100.00;100959.97;5070209;28;20429;-38
2022/01/08 06:15:37;;;;;;;6.35;1.10;;;;;;;4.23;100.00;100964.41;5070953;28;20047;-34
2022/01/08 06:18:05;;;;;;;4.65;1.00;;;;;;;4.22;99.82;100961.91;5070598;28;20409;-37
2022/01/08 06:20:33;;;;;;;5.85;1.25;;;;;;;4.26;99.54;100965.84;5071229;28;20495;-35
2022/01/08 06:23:00;;;;;;;4.03;1.00;;;;;;;4.30;99.92;100962.31;5069664;28;20056;-35
2022/01/08 06:25:29;;;;;;;5.65;1.10;;;;;;;4.32;100.00;100962.91;5071191;28;20060;-31
2022/01/08 06:27:57;;;;;;;4.30;1.25;;;;;;;4.33;100.00;100956.28;5071518;28;20048;-37
2022/01/08 06:30:24;;;;;;;8.05;1.30;;;;;;;4.36;100.00;100955.78;5053050;28;20458;-38
2022/01/08 06:32:53;;;;;;;8.07;1.40;;;;;;;4.41;100.00;100953.06;5071442;28;20383;-33
2022/01/08 06:35:21;;;;;;;8.20;1.67;;;;;;;4.49;100.00;100947.09;5070568;28;20048;-34
2022/01/08 06:37:49;;;;;;;7.90;1.17;;;;;;;4.55;100.00;100944.41;5069351;28;20054;-31
2022/01/08 06:40:17;;;;;;;6.57;1.30;;;;;;;4.58;100.00;100952.19;5070629;28;20398;-31
2022/01/08 06:42:44;;;;;;;10.10;1.67;;;;;;;4.63;100.00;100938.41;5069797;28;20059;-40
2022/01/08 06:45:13;;;;;;;6.20;1.38;;;;;;;4.64;100.00;100935.38;5069491;28;20045;-36
2022/01/08 06:47:42;;;;;;;6.28;1.70;;;;;;;4.65;100.00;100944.50;5069173;28;20070;-32
2022/01/08 06:50:11;;;;;;;8.13;1.42;;;;;;;4.63;100.00;100933.72;5069129;28;20067;-34
2022/01/08 06:52:39;;;;;;;9.85;2.08;;;;;;;4.62;100.00;100929.28;5068983;28;20048;-36
2022/01/08 06:55:08;;;;;;;9.52;1.40;;;;;;;4.61;100.00;100935.06;5070188;28;20044;-30
2022/01/08 06:57:36;;;;;;;6.20;1.70;;;;;;;4.60;100.00;100923.16;5068980;28;20540;-35
2022/01/08 07:00:05;;;;;;;10.60;1.42;;;;;;;4.62;100.00;100928.44;5058586;28;20509;-35
2022/01/08 07:02:33;;;;;;;8.48;1.58;;;;;;;4.61;100.00;100943.34;5069628;28;20063;-31
2022/01/08 07:05:01;;;;;;;11.02;1.70;;;;;;;4.60;100.00;100937.00;5068461;28;20121;-32
2022/01/08 07:07:30;;;;;;;10.45;1.63;;;;;;;4.64;100.00;100938.16;5066780;28;20044;-33
2022/01/08 07:09:58;;;;;;;10.07;1.30;;;;;;;4.61;100.00;100940.59;5066396;28;20498;-33
2022/01/08 07:12:26;;;;;;;7.53;1.30;;;;;;;4.61;100.00;100940.59;5067021;28;20478;-31
2022/01/08 07:14:53;;;;;;;7.63;1.77;;;;;;;4.63;100.00;100943.94;5069474;28;20059;-32
2022/01/08 07:17:21;;;;;;;8.77;1.30;;;;;;;4.62;100.00;100942.25;5069912;28;20486;-33
2022/01/08 07:19:49;;;;;;;8.52;1.33;;;;;;;4.64;100.00;100951.97;5066598;28;20049;-35
2022/01/08 07:22:17;;;;;;;7.22;1.30;;;;;;;4.63;100.00;100946.69;5069234;28;20049;-34
2022/01/08 07:24:46;;;;;;;7.03;1.33;;;;;;;4.60;100.00;100945.28;5069801;28;20053;-37
2022/01/08 07:27:13;;;;;;;8.38;1.30;;;;;;;4.60;100.00;100948.03;5068629;28;20040;-35
2022/01/08 07:29:41;;;;;;;6.80;1.40;;;;;;;4.61;100.00;100948.88;5069499;28;20044;-35
2022/01/08 07:32:09;;;;;;;5.40;1.10;;;;;;;4.61;100.00;100944.19;5069820;28;20072;-31
2022/01/08 07:34:37;;;;;;;8.38;1.50;;;;;;;4.63;100.00;100932.88;5067711;28;20580;-34
2022/01/08 07:37:05;;;;;;;6.43;1.50;;;;;;;4.62;100.00;100936.72;5069070;28;20492;-40
2022/01/08 07:39:33;;;;;;;8.05;1.35;;;;;;;4.62;100.00;100931.22;5068555;28;20504;-34
2022/01/08 07:42:02;;;;;;;7.32;1.35;;;;;;;4.63;100.00;100932.88;5068774;28;20062;-36
2022/01/08 07:44:30;;;;;;;10.25;1.40;;;;;;;4.61;100.00;100930.38;5068083;28;20052;-35
2022/01/08 07:46:58;;;;;;;5.93;1.38;;;;;;;4.61;100.00;100930.38;5066629;28;20044;-38
2022/01/08 07:49:26;;;;;;;6.75;1.25;;;;;;;4.60;100.00;100931.47;5067754;28;20040;-33
2022/01/08 07:51:54;;;;;;;6.55;1.60;;;;;;;4.63;100.00;100925.44;5068986;28;20147;-37
2022/01/08 07:54:21;;;;;;;4.60;1.25;;;;;;;4.67;100.00;100917.47;5068203;28;20048;-38
2022/01/08 07:56:49;;;;;;;4.55;1.10;;;;;;;4.70;100.00;100906.72;5069358;28;20512;-37
2022/01/08 07:59:18;;;;;;;6.03;1.30;;;;;;;4.71;100.00;100905.63;5068811;28;20505;-36
2022/01/08 08:01:46;;;;;;;5.03;1.25;;;;;;;4.67;100.00;100901.72;5071426;28;20067;-38
2022/01/08 08:04:13;;;;;;;7.90;1.48;;;;;;;4.67;100.00;100892.59;5073077;28;20037;-34
2022/01/08 08:06:45;;;;;;;8.07;1.30;;;;;;;4.66;100.00;100882.63;5072609;28;20485;-34
2022/01/08 08:09:13;;;;;;;8.10;1.55;;;;;;;4.66;100.00;100886.22;5072185;28;20485;-37
2022/01/08 08:11:40;;;;;;;8.85;1.10;;;;;;;4.69;100.00;100882.09;5070980;28;20712;-35
2022/01/08 08:14:08;;;;;;;5.53;1.10;;;;;;;4.71;100.00;100878.00;5073180;28;20044;-35
2022/01/08 08:16:37;;;;;;;6.85;1.05;;;;;;;4.71;100.00;100866.94;5072412;28;20548;-35
2022/01/08 08:19:05;;;;;;;8.68;1.55;;;;;;;4.73;100.00;100861.16;5072680;28;20048;-31
2022/01/08 08:21:33;;;;;;;7.35;1.63;;;;;;;4.72;100.00;100860.31;5072467;28;20044;-34
2022/01/08 08:24:03;;;;;;;4.38;1.10;;;;;;;4.75;100.00;100853.44;5072101;28;20398;-38
2022/01/08 08:26:31;;;;;;;9.95;1.73;;;;;;;4.73;100.00;100845.41;5071677;28;20051;-33
2022/01/08 08:28:58;;;;;;;10.63;1.80;;;;;;;4.74;100.00;100846.22;5072021;28;20054;-37
2022/01/08 08:31:26;;;;;;;5.68;1.30;;;;;;;4.73;100.00;100850.09;5072200;28;20052;-32
2022/01/08 08:33:56;;;;;;;13.52;1.77;;;;;;;4.74;100.00;100840.72;5071727;28;20049;-36
2022/01/08 08:36:24;;;;;;;7.55;1.15;;;;;;;4.75;100.00;100850.66;5071156;28;20131;-37
2022/01/08 08:38:52;;;;;;;5.07;1.38;;;;;;;4.76;100.00;100841.28;5072528;28;20060;-34
2022/01/08 08:41:20;;;;;;;5.45;1.30;;;;;;;4.79;100.00;100838.84;5072141;28;20508;-33
2022/01/08 08:43:48;;;;;;;5.82;1.10;;;;;;;4.82;100.00;100842.97;5071869;28;20045;-37
2022/01/08 08:46:15;;;;;;;6.80;1.30;;;;;;;4.85;100.00;100848.00;5071251;28;20049;-38
2022/01/08 08:48:44;;;;;;;6.72;1.33;;;;;;;4.86;100.00;100830.31;5072288;28;20051;-38
2022/01/08 08:51:13;;;;;;;6.72;1.20;;;;;;;4.88;100.00;100832.81;5071265;28;20056;-36
2022/01/08 08:53:41;;;;;;;9.65;1.45;;;;;;;4.91;100.00;100829.53;5071063;28;20091;-34
2022/01/08 08:56:09;;;;;;;5.78;1.20;;;;;;;4.94;100.00;100816.03;5068154;28;20044;-32
2022/01/08 08:58:37;;;;;;;7.35;1.25;;;;;;;4.97;100.00;100807.19;5072122;28;20051;-34
2022/01/08 09:01:05;;;;;;;11.85;1.90;;;;;;;5.01;100.00;100802.78;5072145;28;20060;-35
2022/01/08 09:03:32;;;;;;;10.00;1.10;;;;;;;5.02;100.00;100803.63;5072812;28;20056;-32
2022/01/08 09:06:02;;;;;;;6.38;1.17;;;;;;;5.03;100.00;100800.59;5072113;28;20048;-37
2022/01/08 09:08:31;;;;;;;9.23;1.63;;;;;;;5.04;100.00;100796.72;5072784;28;20071;-35
2022/01/08 09:10:59;;;;;;;7.47;1.40;;;;;;;5.08;100.00;100805.34;5072105;28;20378;-35
2022/01/08 09:13:28;;;;;;;4.80;1.00;;;;;;;5.09;100.00;100796.78;5071898;28;20390;-38
2022/01/08 09:15:56;;;;;;;7.43;1.00;;;;;;;5.14;100.00;100783.00;5055266;28;20067;-33
2022/01/08 09:18:24;;;;;;;10.23;1.17;;;;;;;5.18;100.00;100775.84;5072177;28;20051;-42
2022/01/08 09:20:52;;;;;;;8.23;1.20;;;;;;;5.19;100.00;100783.03;5073217;28;20041;-36
2022/01/08 09:23:19;;;;;;;9.68;1.23;;;;;;;5.27;100.00;100772.56;5072156;28;20075;-37
2022/01/08 09:25:49;;;;;;;5.32;1.05;;;;;;;5.30;100.00;100759.03;5071619;28;20051;-37
2022/01/08 09:28:16;;;;;;;6.50;1.10;;;;;;;5.34;100.00;100745.50;5072307;28;20036;-38
2022/01/08 09:30:44;;;;;;;9.15;1.40;;;;;;;5.38;100.00;100768.78;5072999;28;20045;-37
2022/01/08 09:33:12;;;;;;;7.43;1.20;;;;;;;5.39;100.00;100753.84;5071583;28;20048;-33
2022/01/08 09:35:40;;;;;;;7.43;1.40;;;;;;;5.43;100.00;100727.28;5072609;28;20052;-35
2022/01/08 09:38:08;;;;;;;7.30;1.05;;;;;;;5.45;100.00;100731.44;5071446;28;20400;-35
2022/01/08 09:40:36;;;;;;;6.90;1.15;;;;;;;5.51;100.00;100735.09;5069980;28;20407;-33
2022/01/08 09:43:05;;;;;;;10.88;1.40;;;;;;;5.54;100.00;100740.09;5072230;28;20048;-37
2022/01/08 09:45:33;;;;;;;4.60;0.93;;;;;;;5.56;100.00;100732.34;5072550;28;20067;-30
2022/01/08 09:48:01;;;;;;;7.55;1.00;;;;;;;5.60;100.00;100727.09;5071086;28;20115;-33
2022/01/08 09:50:28;;;;;;;8.00;1.73;;;;;;;5.66;100.00;100718.53;5072414;28;20080;-39
2022/01/08 09:52:58;;;;;;;6.90;1.08;;;;;;;5.73;100.00;100715.53;5070053;28;20049;-34
2022/01/08 09:55:27;;;;;;;10.68;1.40;;;;;;;5.77;100.00;100708.38;5070672;28;20041;-39
2022/01/08 09:57:54;;;;;;;5.53;1.25;;;;;;;5.78;100.00;100702.56;5072146;28;20188;-39
2022/01/08 10:00:24;;;;;;;6.65;1.10;;;;;;;5.84;100.00;100695.06;5071212;28;20047;-35
2022/01/08 10:02:53;;;;;;;11.73;1.48;;;;;;;5.86;100.00;100688.16;5072139;28;20053;-37
2022/01/08 10:05:21;;;;;;;6.93;1.17;;;;;;;5.87;100.00;100683.47;5071680;28;20048;-36
2022/01/08 10:07:58;;;;;;;5.50;1.05;;;;;;;5.90;100.00;100680.19;5070936;28;20071;-35
2022/01/08 10:10:27;;;;;;;7.85;1.20;;;;;;;5.92;100.00;100671.59;5071312;28;20044;-36
2022/01/08 10:12:58;;;;;;;7.13;1.25;;;;;;;5.91;100.00;100670.78;5071938;28;20131;-39
2022/01/08 10:18:23;;;;;;;11.07;1.40;;;;;;;5.88;100.00;100644.44;5071823;28;20400;-39
2022/01/08 10:20:51;;;;;;;8.32;1.17;;;;;;;5.88;100.00;100641.69;5069658;28;20059;-36
2022/01/08 10:23:22;;;;;;;9.63;1.38;;;;;;;5.89;100.00;100648.06;5070346;28;20052;-38
2022/01/08 10:25:57;;;;;;;13.43;1.55;;;;;;;5.91;100.00;100633.94;5071375;28;20044;-36
2022/01/08 10:28:39;;;;;;;9.25;1.33;;;;;;;5.94;100.00;100622.31;5053520;28;20056;-38
2022/01/08 10:31:11;;;;;;;8.52;1.33;;;;;;;5.91;100.00;100618.16;5071491;28;20049;-34
2022/01/08 10:33:40;;;;;;;11.30;1.50;;;;;;;5.92;100.00;100607.91;5071697;28;20040;-39
2022/01/08 10:36:08;;;;;;;6.40;1.30;;;;;;;5.88;100.00;100608.47;5070428;28;20056;-42
2022/01/08 10:38:36;;;;;;;9.65;1.55;;;;;;;5.84;100.00;100599.00;5070930;28;20041;-38
2022/01/08 10:41:04;;;;;;;9.65;1.92;;;;;;;5.78;100.00;100591.81;5071058;28;20498;-31
2022/01/08 10:43:33;;;;;;;15.23;1.90;;;;;;;5.71;100.00;100591.22;5070815;28;20052;-36
2022/01/08 10:46:14;;;;;;;9.07;1.90;;;;;;;5.70;100.00;100584.03;5070969;28;20045;-37
2022/01/08 10:48:47;;;;;;;16.27;2.83;;;;;;;5.66;100.00;100574.59;5071418;28;20140;-32
2022/01/08 10:51:18;;;;;;;12.85;2.33;;;;;;;5.64;100.00;100570.44;5069474;28;20061;-35
2022/01/08 10:54:06;;;;;;;8.82;2.03;;;;;;;5.61;100.00;100571.81;5070243;28;20048;-38
2022/01/08 10:56:36;;;;;;;7.97;2.03;;;;;;;5.53;100.00;100564.06;5068756;28;20063;-42
2022/01/08 10:59:08;;;;;;;7.47;2.00;;;;;;;5.42;100.00;100560.44;5071086;28;20429;-37
2022/01/08 11:01:45;;;;;;;7.90;2.10;;;;;;;5.24;100.00;100562.84;5070547;28;20053;-34
2022/01/08 11:04:15;;;;;;;9.23;2.35;;;;;;;5.01;100.00;100556.69;5070586;28;20060;-37
2022/01/08 11:06:55;;;;;;;5.35;1.70;;;;;;;4.97;100.00;100547.28;5070460;28;20044;-38
2022/01/08 11:09:24;;;;;;;9.93;2.15;;;;;;;4.91;100.00;100536.47;5071064;28;20079;-35
2022/01/08 11:11:53;;;;;;;5.75;2.17;;;;;;;4.83;100.00;100533.09;5069790;28;20037;-31
2022/01/08 11:14:46;;;;;;;11.18;2.97;;;;;;;4.76;100.00;100529.78;5070738;28;20071;-33
2022/01/08 11:17:17;;;;;;;8.83;2.47;;;;;;;4.62;100.00;100527.75;5070570;28;20063;-34
2022/01/08 11:19:46;;;;;;;;;;;;;;;4.46;100.00;100522.13;5070991;28;20045;-31
2022/01/08 11:22:16;;;;;;;9.38;2.25;;;;;;;4.36;100.00;100518.50;5070893;28;19986;-36
2022/01/08 11:24:54;;;;;;;7.28;2.78;;;;;;;4.38;100.00;100497.78;5069668;28;20140;-35
2022/01/08 11:27:25;;;;;;;9.35;3.25;;;;;;;4.41;100.00;100494.47;5070493;28;20136;-33
2022/01/08 11:30:15;;;;;;;8.60;2.90;;;;;;;4.38;100.00;100485.91;5070854;28;20048;-35
2022/01/08 11:32:45;;;;;;;7.57;2.30;;;;;;;4.38;100.00;100486.75;5066511;28;20044;-34
2022/01/08 11:35:35;;;;;;;8.98;2.85;;;;;;;4.37;100.00;100465.75;5053722;28;20056;-38
2022/01/08 11:38:06;;;;;;;9.38;3.10;;;;;;;4.36;100.00;100461.31;5074582;28;20139;-31
2022/01/08 11:40:36;;;;;;;9.65;3.10;;;;;;;4.34;100.00;100451.63;5074141;28;20054;-37
2022/01/08 11:43:08;;;;;;;9.32;3.40;;;;;;;4.33;100.00;100448.03;5073926;28;20556;-40
2022/01/08 11:45:38;;;;;;;6.32;2.90;;;;;;;4.28;100.00;100439.72;5074733;28;20060;-37
2022/01/08 11:48:09;;;;;;;8.88;3.28;;;;;;;4.27;100.00;100432.53;5073564;28;20045;-33
2022/01/08 11:50:38;;;;;;;9.00;3.60;;;;;;;4.22;100.00;100415.09;5074718;28;20063;-34